sensor_id;sensor_type;location;lat;lon;timestamp;P1;durP1;ratioP1;P2;durP2;ratioP2
6013;SDS011;3035;49.928;8.410;2023-01-04T00:00:45;12.40;;;5.03;;
6013;SDS011;3035;49.928;8.410;2023-01-04T00:03:14;9.47;;;4.67;;
6013;SDS011;3035;49.928;8.410;2023-01-04T00:05:42;7.73;;;4.60;;
6013;SDS011;3035;49.928;8.410;2023-01-04T00:08:11;6.80;;;5.07;;
6013;SDS011;3035;49.928;8.410;2023-01-04T00:10:40;14.70;;;4.90;;
6013;SDS011;3035;49.928;8.410;2023-01-04T00:13:09;11.13;;;5.23;;
6013;SDS011;3035;49.928;8.410;2023-01-04T00:15:37;12.40;;;5.23;;
6013;SDS011;3035;49.928;8.410;2023-01-04T00:18:06;7.30;;;5.03;;
6013;SDS011;3035;49.928;8.410;2023-01-04T00:20:34;8.10;;;4.77;;
6013;SDS011;3035;49.928;8.410;2023-01-04T00:23:02;8.87;;;4.97;;
6013;SDS011;3035;49.928;8.410;2023-01-04T00:25:31;12.17;;;5.63;;
6013;SDS011;3035;49.928;8.410;2023-01-04T00:28:00;6.97;;;4.73;;
6013;SDS011;3035;49.928;8.410;2023-01-04T00:30:28;11.17;;;5.80;;
6013;SDS011;3035;49.928;8.410;2023-01-04T00:32:57;7.73;;;5.13;;
6013;SDS011;3035;49.928;8.410;2023-01-04T00:35:26;10.70;;;5.20;;
6013;SDS011;3035;49.928;8.410;2023-01-04T00:37:55;15.33;;;5.83;;
6013;SDS011;3035;49.928;8.410;2023-01-04T00:40:23;10.90;;;5.90;;
6013;SDS011;3035;49.928;8.410;2023-01-04T00:42:52;9.40;;;5.97;;
6013;SDS011;3035;49.928;8.410;2023-01-04T00:45:20;11.50;;;6.37;;
6013;SDS011;3035;49.928;8.410;2023-01-04T00:47:48;11.87;;;6.93;;
6013;SDS011;3035;49.928;8.410;2023-01-04T00:50:18;11.43;;;6.10;;
6013;SDS011;3035;49.928;8.410;2023-01-04T00:52:48;13.40;;;6.90;;
6013;SDS011;3035;49.928;8.410;2023-01-04T00:55:15;11.00;;;6.20;;
6013;SDS011;3035;49.928;8.410;2023-01-04T00:57:43;13.27;;;6.10;;
6013;SDS011;3035;49.928;8.410;2023-01-04T01:00:12;12.63;;;7.13;;
6013;SDS011;3035;49.928;8.410;2023-01-04T01:02:42;11.00;;;5.83;;
6013;SDS011;3035;49.928;8.410;2023-01-04T01:05:10;8.87;;;5.50;;
6013;SDS011;3035;49.928;8.410;2023-01-04T01:07:38;9.20;;;5.27;;
6013;SDS011;3035;49.928;8.410;2023-01-04T01:10:07;10.03;;;5.93;;
6013;SDS011;3035;49.928;8.410;2023-01-04T01:12:35;11.57;;;6.67;;
6013;SDS011;3035;49.928;8.410;2023-01-04T01:15:04;9.90;;;5.70;;
6013;SDS011;3035;49.928;8.410;2023-01-04T01:17:34;7.80;;;6.03;;
6013;SDS011;3035;49.928;8.410;2023-01-04T01:20:03;11.23;;;5.90;;
6013;SDS011;3035;49.928;8.410;2023-01-04T01:22:33;10.73;;;5.87;;
6013;SDS011;3035;49.928;8.410;2023-01-04T01:24:59;10.47;;;6.13;;
6013;SDS011;3035;49.928;8.410;2023-01-04T01:27:29;9.23;;;6.77;;
6013;SDS011;3035;49.928;8.410;2023-01-04T01:29:58;9.93;;;6.30;;
6013;SDS011;3035;49.928;8.410;2023-01-04T01:32:26;14.03;;;7.20;;
6013;SDS011;3035;49.928;8.410;2023-01-04T01:34:55;12.23;;;7.73;;
6013;SDS011;3035;49.928;8.410;2023-01-04T01:37:24;9.93;;;6.60;;
6013;SDS011;3035;49.928;8.410;2023-01-04T01:39:52;13.40;;;6.47;;
6013;SDS011;3035;49.928;8.410;2023-01-04T01:42:20;11.87;;;6.47;;
6013;SDS011;3035;49.928;8.410;2023-01-04T01:44:53;8.90;;;6.70;;
6013;SDS011;3035;49.928;8.410;2023-01-04T01:47:22;15.60;;;7.13;;
6013;SDS011;3035;49.928;8.410;2023-01-04T01:49:50;15.80;;;8.50;;
6013;SDS011;3035;49.928;8.410;2023-01-04T01:52:21;17.67;;;8.07;;
6013;SDS011;3035;49.928;8.410;2023-01-04T01:54:51;12.30;;;7.37;;
6013;SDS011;3035;49.928;8.410;2023-01-04T01:57:21;12.47;;;8.90;;
6013;SDS011;3035;49.928;8.410;2023-01-04T01:59:49;10.83;;;7.30;;
6013;SDS011;3035;49.928;8.410;2023-01-04T02:02:17;13.37;;;8.47;;
6013;SDS011;3035;49.928;8.410;2023-01-04T02:04:45;22.20;;;10.20;;
6013;SDS011;3035;49.928;8.410;2023-01-04T02:07:14;27.03;;;12.57;;
6013;SDS011;3035;49.928;8.410;2023-01-04T02:09:41;22.53;;;11.63;;
6013;SDS011;3035;49.928;8.410;2023-01-04T02:12:10;12.70;;;7.37;;
6013;SDS011;3035;49.928;8.410;2023-01-04T02:14:39;17.77;;;9.00;;
6013;SDS011;3035;49.928;8.410;2023-01-04T02:17:18;12.60;;;6.77;;
6013;SDS011;3035;49.928;8.410;2023-01-04T02:19:55;18.20;;;9.87;;
6013;SDS011;3035;49.928;8.410;2023-01-04T02:22:54;20.17;;;8.17;;
6013;SDS011;3035;49.928;8.410;2023-01-04T02:28:34;11.53;;;7.93;;
6013;SDS011;3035;49.928;8.410;2023-01-04T02:31:30;19.03;;;8.93;;
6013;SDS011;3035;49.928;8.410;2023-01-04T02:34:14;16.37;;;8.40;;
6013;SDS011;3035;49.928;8.410;2023-01-04T02:37:02;11.70;;;8.50;;
6013;SDS011;3035;49.928;8.410;2023-01-04T02:42:21;12.40;;;8.50;;
6013;SDS011;3035;49.928;8.410;2023-01-04T02:44:58;15.83;;;9.10;;
6013;SDS011;3035;49.928;8.410;2023-01-04T02:47:26;13.53;;;8.70;;
6013;SDS011;3035;49.928;8.410;2023-01-04T02:49:59;13.50;;;8.77;;
6013;SDS011;3035;49.928;8.410;2023-01-04T02:52:33;13.53;;;8.87;;
6013;SDS011;3035;49.928;8.410;2023-01-04T02:55:02;17.87;;;8.80;;
6013;SDS011;3035;49.928;8.410;2023-01-04T02:57:39;14.00;;;9.60;;
6013;SDS011;3035;49.928;8.410;2023-01-04T03:05:55;16.53;;;10.17;;
6013;SDS011;3035;49.928;8.410;2023-01-04T03:08:37;14.53;;;10.03;;
6013;SDS011;3035;49.928;8.410;2023-01-04T03:11:08;17.90;;;10.37;;
6013;SDS011;3035;49.928;8.410;2023-01-04T03:13:41;12.13;;;9.53;;
6013;SDS011;3035;49.928;8.410;2023-01-04T03:16:13;15.90;;;10.60;;
6013;SDS011;3035;49.928;8.410;2023-01-04T03:18:42;16.40;;;9.27;;
6013;SDS011;3035;49.928;8.410;2023-01-04T03:21:10;15.97;;;10.23;;
6013;SDS011;3035;49.928;8.410;2023-01-04T03:23:37;13.73;;;9.47;;
6013;SDS011;3035;49.928;8.410;2023-01-04T03:26:14;12.70;;;9.07;;
6013;SDS011;3035;49.928;8.410;2023-01-04T03:28:47;22.10;;;9.63;;
6013;SDS011;3035;49.928;8.410;2023-01-04T03:31:24;12.90;;;8.93;;
6013;SDS011;3035;49.928;8.410;2023-01-04T03:34:06;19.60;;;9.80;;
6013;SDS011;3035;49.928;8.410;2023-01-04T03:36:57;13.20;;;8.90;;
6013;SDS011;3035;49.928;8.410;2023-01-04T03:39:46;15.23;;;10.00;;
6013;SDS011;3035;49.928;8.410;2023-01-04T03:42:39;15.53;;;9.37;;
6013;SDS011;3035;49.928;8.410;2023-01-04T03:45:29;14.60;;;10.20;;
6013;SDS011;3035;49.928;8.410;2023-01-04T03:48:03;15.70;;;10.47;;
6013;SDS011;3035;49.928;8.410;2023-01-04T03:50:51;15.33;;;10.10;;
6013;SDS011;3035;49.928;8.410;2023-01-04T03:53:19;16.73;;;10.33;;
6013;SDS011;3035;49.928;8.410;2023-01-04T03:55:48;16.00;;;10.13;;
6013;SDS011;3035;49.928;8.410;2023-01-04T03:58:17;14.57;;;10.03;;
6013;SDS011;3035;49.928;8.410;2023-01-04T04:00:45;19.30;;;10.90;;
6013;SDS011;3035;49.928;8.410;2023-01-04T04:03:14;15.50;;;9.53;;
6013;SDS011;3035;49.928;8.410;2023-01-04T04:05:42;11.63;;;8.37;;
6013;SDS011;3035;49.928;8.410;2023-01-04T04:08:17;17.77;;;9.03;;
6013;SDS011;3035;49.928;8.410;2023-01-04T04:10:51;16.57;;;9.00;;
6013;SDS011;3035;49.928;8.410;2023-01-04T04:13:19;15.30;;;9.57;;
6013;SDS011;3035;49.928;8.410;2023-01-04T04:15:50;14.70;;;9.83;;
6013;SDS011;3035;49.928;8.410;2023-01-04T04:18:17;15.77;;;9.57;;
6013;SDS011;3035;49.928;8.410;2023-01-04T04:20:45;10.93;;;8.50;;
6013;SDS011;3035;49.928;8.410;2023-01-04T04:23:13;19.00;;;10.83;;
6013;SDS011;3035;49.928;8.410;2023-01-04T04:25:42;16.30;;;10.10;;
6013;SDS011;3035;49.928;8.410;2023-01-04T04:28:10;12.30;;;8.33;;
6013;SDS011;3035;49.928;8.410;2023-01-04T04:30:39;13.10;;;9.13;;
6013;SDS011;3035;49.928;8.410;2023-01-04T04:33:08;26.17;;;9.17;;
6013;SDS011;3035;49.928;8.410;2023-01-04T04:35:36;15.90;;;8.50;;
6013;SDS011;3035;49.928;8.410;2023-01-04T04:38:04;18.63;;;8.40;;
6013;SDS011;3035;49.928;8.410;2023-01-04T04:40:32;15.43;;;8.30;;
6013;SDS011;3035;49.928;8.410;2023-01-04T04:43:07;13.63;;;7.10;;
6013;SDS011;3035;49.928;8.410;2023-01-04T04:45:35;10.27;;;7.60;;
6013;SDS011;3035;49.928;8.410;2023-01-04T04:48:03;11.30;;;7.43;;
6013;SDS011;3035;49.928;8.410;2023-01-04T04:50:31;13.50;;;8.60;;
6013;SDS011;3035;49.928;8.410;2023-01-04T04:52:59;17.83;;;7.93;;
6013;SDS011;3035;49.928;8.410;2023-01-04T04:55:28;13.50;;;6.80;;
6013;SDS011;3035;49.928;8.410;2023-01-04T04:57:57;11.40;;;6.40;;
6013;SDS011;3035;49.928;8.410;2023-01-04T05:00:25;11.37;;;7.17;;
6013;SDS011;3035;49.928;8.410;2023-01-04T05:02:53;14.57;;;7.00;;
6013;SDS011;3035;49.928;8.410;2023-01-04T05:05:21;9.73;;;6.43;;
6013;SDS011;3035;49.928;8.410;2023-01-04T05:07:49;11.20;;;7.07;;
6013;SDS011;3035;49.928;8.410;2023-01-04T05:10:18;11.57;;;6.87;;
6013;SDS011;3035;49.928;8.410;2023-01-04T05:12:46;12.20;;;6.90;;
6013;SDS011;3035;49.928;8.410;2023-01-04T05:15:20;9.13;;;5.90;;
6013;SDS011;3035;49.928;8.410;2023-01-04T05:17:49;9.80;;;6.10;;
6013;SDS011;3035;49.928;8.410;2023-01-04T05:20:17;10.00;;;6.00;;
6013;SDS011;3035;49.928;8.410;2023-01-04T05:22:46;10.90;;;5.83;;
6013;SDS011;3035;49.928;8.410;2023-01-04T05:25:14;10.60;;;5.50;;
6013;SDS011;3035;49.928;8.410;2023-01-04T05:27:43;8.97;;;5.70;;
6013;SDS011;3035;49.928;8.410;2023-01-04T05:30:12;12.13;;;6.30;;
6013;SDS011;3035;49.928;8.410;2023-01-04T05:32:45;7.50;;;5.30;;
6013;SDS011;3035;49.928;8.410;2023-01-04T05:35:13;9.73;;;4.50;;
6013;SDS011;3035;49.928;8.410;2023-01-04T05:37:41;10.63;;;5.03;;
6013;SDS011;3035;49.928;8.410;2023-01-04T05:40:09;9.80;;;5.30;;
6013;SDS011;3035;49.928;8.410;2023-01-04T05:42:38;13.00;;;4.50;;
6013;SDS011;3035;49.928;8.410;2023-01-04T05:45:06;8.57;;;5.90;;
6013;SDS011;3035;49.928;8.410;2023-01-04T05:47:35;7.60;;;5.00;;
6013;SDS011;3035;49.928;8.410;2023-01-04T05:50:03;7.10;;;5.73;;
6013;SDS011;3035;49.928;8.410;2023-01-04T05:52:33;8.07;;;5.37;;
6013;SDS011;3035;49.928;8.410;2023-01-04T05:55:01;9.17;;;5.67;;
6013;SDS011;3035;49.928;8.410;2023-01-04T05:57:30;8.03;;;5.50;;
6013;SDS011;3035;49.928;8.410;2023-01-04T05:59:58;10.50;;;5.30;;
6013;SDS011;3035;49.928;8.410;2023-01-04T06:02:27;9.03;;;5.37;;
6013;SDS011;3035;49.928;8.410;2023-01-04T06:04:55;10.00;;;5.90;;
6013;SDS011;3035;49.928;8.410;2023-01-04T06:07:24;10.30;;;6.23;;
6013;SDS011;3035;49.928;8.410;2023-01-04T06:09:52;13.60;;;5.80;;
6013;SDS011;3035;49.928;8.410;2023-01-04T06:12:20;10.10;;;5.43;;
6013;SDS011;3035;49.928;8.410;2023-01-04T06:14:49;14.30;;;6.27;;
6013;SDS011;3035;49.928;8.410;2023-01-04T06:17:17;7.00;;;4.87;;
6013;SDS011;3035;49.928;8.410;2023-01-04T06:19:46;8.20;;;5.80;;
6013;SDS011;3035;49.928;8.410;2023-01-04T06:22:14;10.10;;;5.67;;
6013;SDS011;3035;49.928;8.410;2023-01-04T06:24:43;10.93;;;6.23;;
6013;SDS011;3035;49.928;8.410;2023-01-04T06:27:12;8.50;;;6.63;;
6013;SDS011;3035;49.928;8.410;2023-01-04T06:29:40;10.50;;;7.40;;
6013;SDS011;3035;49.928;8.410;2023-01-04T06:32:09;8.80;;;6.27;;
6013;SDS011;3035;49.928;8.410;2023-01-04T06:34:37;12.37;;;6.40;;
6013;SDS011;3035;49.928;8.410;2023-01-04T06:37:07;15.93;;;8.30;;
6013;SDS011;3035;49.928;8.410;2023-01-04T06:39:36;9.60;;;6.87;;
6013;SDS011;3035;49.928;8.410;2023-01-04T06:42:04;8.70;;;5.80;;
6013;SDS011;3035;49.928;8.410;2023-01-04T06:44:32;12.60;;;6.37;;
6013;SDS011;3035;49.928;8.410;2023-01-04T06:47:00;13.57;;;7.13;;
6013;SDS011;3035;49.928;8.410;2023-01-04T06:49:30;11.50;;;6.90;;
6013;SDS011;3035;49.928;8.410;2023-01-04T06:51:58;12.03;;;6.63;;
6013;SDS011;3035;49.928;8.410;2023-01-04T06:54:27;9.50;;;6.87;;
6013;SDS011;3035;49.928;8.410;2023-01-04T06:56:55;9.30;;;6.50;;
6013;SDS011;3035;49.928;8.410;2023-01-04T06:59:23;10.23;;;6.93;;
6013;SDS011;3035;49.928;8.410;2023-01-04T07:01:53;13.30;;;7.27;;
6013;SDS011;3035;49.928;8.410;2023-01-04T07:04:21;15.50;;;7.73;;
6013;SDS011;3035;49.928;8.410;2023-01-04T07:06:50;10.87;;;6.73;;
6013;SDS011;3035;49.928;8.410;2023-01-04T07:09:18;11.70;;;6.40;;
6013;SDS011;3035;49.928;8.410;2023-01-04T07:11:47;11.97;;;6.80;;
6013;SDS011;3035;49.928;8.410;2023-01-04T07:14:15;11.07;;;6.60;;
6013;SDS011;3035;49.928;8.410;2023-01-04T07:16:43;10.00;;;6.63;;
6013;SDS011;3035;49.928;8.410;2023-01-04T07:19:13;12.13;;;6.17;;
6013;SDS011;3035;49.928;8.410;2023-01-04T07:21:41;8.60;;;6.07;;
6013;SDS011;3035;49.928;8.410;2023-01-04T07:24:10;10.80;;;6.63;;
6013;SDS011;3035;49.928;8.410;2023-01-04T07:26:38;9.53;;;6.07;;
6013;SDS011;3035;49.928;8.410;2023-01-04T07:29:08;8.10;;;4.97;;
6013;SDS011;3035;49.928;8.410;2023-01-04T07:31:41;10.57;;;5.70;;
6013;SDS011;3035;49.928;8.410;2023-01-04T07:34:09;10.50;;;5.30;;
6013;SDS011;3035;49.928;8.410;2023-01-04T07:36:37;8.57;;;6.13;;
6013;SDS011;3035;49.928;8.410;2023-01-04T07:39:06;10.73;;;6.10;;
6013;SDS011;3035;49.928;8.410;2023-01-04T07:41:33;8.27;;;5.60;;
6013;SDS011;3035;49.928;8.410;2023-01-04T07:44:02;10.17;;;5.77;;
6013;SDS011;3035;49.928;8.410;2023-01-04T07:46:32;8.10;;;5.50;;
6013;SDS011;3035;49.928;8.410;2023-01-04T07:49:01;13.47;;;6.13;;
6013;SDS011;3035;49.928;8.410;2023-01-04T07:51:29;10.90;;;5.67;;
6013;SDS011;3035;49.928;8.410;2023-01-04T07:53:57;10.70;;;5.30;;
6013;SDS011;3035;49.928;8.410;2023-01-04T07:56:25;7.13;;;4.80;;
6013;SDS011;3035;49.928;8.410;2023-01-04T07:58:54;7.80;;;5.27;;
6013;SDS011;3035;49.928;8.410;2023-01-04T08:01:23;24.03;;;5.53;;
6013;SDS011;3035;49.928;8.410;2023-01-04T08:03:51;7.20;;;4.27;;
6013;SDS011;3035;49.928;8.410;2023-01-04T08:06:19;7.00;;;4.73;;
6013;SDS011;3035;49.928;8.410;2023-01-04T08:08:47;6.60;;;3.80;;
6013;SDS011;3035;49.928;8.410;2023-01-04T08:11:16;8.23;;;4.33;;
6013;SDS011;3035;49.928;8.410;2023-01-04T08:13:44;7.90;;;4.10;;
6013;SDS011;3035;49.928;8.410;2023-01-04T08:16:18;7.27;;;4.80;;
6013;SDS011;3035;49.928;8.410;2023-01-04T08:18:46;7.47;;;4.60;;
6013;SDS011;3035;49.928;8.410;2023-01-04T08:21:15;7.33;;;4.30;;
6013;SDS011;3035;49.928;8.410;2023-01-04T08:23:44;7.40;;;3.90;;
6013;SDS011;3035;49.928;8.410;2023-01-04T08:26:14;5.90;;;3.43;;
6013;SDS011;3035;49.928;8.410;2023-01-04T08:28:43;5.60;;;3.60;;
6013;SDS011;3035;49.928;8.410;2023-01-04T08:31:12;5.80;;;3.33;;
6013;SDS011;3035;49.928;8.410;2023-01-04T08:33:42;4.10;;;3.50;;
6013;SDS011;3035;49.928;8.410;2023-01-04T08:36:11;3.63;;;3.10;;
6013;SDS011;3035;49.928;8.410;2023-01-04T08:38:39;3.57;;;3.10;;
6013;SDS011;3035;49.928;8.410;2023-01-04T08:41:08;7.37;;;3.33;;
6013;SDS011;3035;49.928;8.410;2023-01-04T08:43:37;4.93;;;3.13;;
6013;SDS011;3035;49.928;8.410;2023-01-04T08:46:05;4.63;;;3.07;;
6013;SDS011;3035;49.928;8.410;2023-01-04T08:48:33;5.53;;;3.10;;
6013;SDS011;3035;49.928;8.410;2023-01-04T08:51:05;6.27;;;3.20;;
6013;SDS011;3035;49.928;8.410;2023-01-04T08:53:33;3.50;;;2.77;;
6013;SDS011;3035;49.928;8.410;2023-01-04T08:56:02;8.80;;;2.60;;
6013;SDS011;3035;49.928;8.410;2023-01-04T08:58:30;5.67;;;2.70;;
6013;SDS011;3035;49.928;8.410;2023-01-04T09:01:00;2.03;;;1.83;;
6013;SDS011;3035;49.928;8.410;2023-01-04T09:06:04;6.27;;;2.93;;
6013;SDS011;3035;49.928;8.410;2023-01-04T09:08:33;5.30;;;2.60;;
6013;SDS011;3035;49.928;8.410;2023-01-04T09:11:04;5.33;;;2.67;;
6013;SDS011;3035;49.928;8.410;2023-01-04T09:13:33;4.13;;;2.90;;
6013;SDS011;3035;49.928;8.410;2023-01-04T09:16:01;11.87;;;2.83;;
6013;SDS011;3035;49.928;8.410;2023-01-04T09:18:29;3.83;;;2.10;;
6013;SDS011;3035;49.928;8.410;2023-01-04T09:20:58;4.10;;;2.43;;
6013;SDS011;3035;49.928;8.410;2023-01-04T09:23:27;4.33;;;2.30;;
6013;SDS011;3035;49.928;8.410;2023-01-04T09:25:55;3.33;;;1.83;;
6013;SDS011;3035;49.928;8.410;2023-01-04T09:28:23;4.93;;;1.87;;
6013;SDS011;3035;49.928;8.410;2023-01-04T09:30:52;3.50;;;1.50;;
6013;SDS011;3035;49.928;8.410;2023-01-04T09:33:20;1.70;;;1.43;;
6013;SDS011;3035;49.928;8.410;2023-01-04T09:35:48;1.70;;;1.60;;
6013;SDS011;3035;49.928;8.410;2023-01-04T09:38:17;2.10;;;1.40;;
6013;SDS011;3035;49.928;8.410;2023-01-04T09:40:51;1.50;;;1.40;;
6013;SDS011;3035;49.928;8.410;2023-01-04T09:43:36;3.07;;;1.63;;
6013;SDS011;3035;49.928;8.410;2023-01-04T09:46:07;4.10;;;1.47;;
6013;SDS011;3035;49.928;8.410;2023-01-04T09:48:34;6.27;;;1.77;;
6013;SDS011;3035;49.928;8.410;2023-01-04T09:51:03;4.50;;;1.80;;
6013;SDS011;3035;49.928;8.410;2023-01-04T09:53:32;2.00;;;1.73;;
6013;SDS011;3035;49.928;8.410;2023-01-04T09:56:06;3.37;;;2.17;;
6013;SDS011;3035;49.928;8.410;2023-01-04T09:58:35;1.97;;;1.47;;
6013;SDS011;3035;49.928;8.410;2023-01-04T10:01:05;3.67;;;1.77;;
6013;SDS011;3035;49.928;8.410;2023-01-04T10:03:37;2.07;;;1.73;;
6013;SDS011;3035;49.928;8.410;2023-01-04T10:06:09;2.10;;;1.73;;
6013;SDS011;3035;49.928;8.410;2023-01-04T10:08:35;6.07;;;1.90;;
6013;SDS011;3035;49.928;8.410;2023-01-04T10:14:03;1.93;;;1.70;;
6013;SDS011;3035;49.928;8.410;2023-01-04T10:16:55;7.73;;;2.37;;
6013;SDS011;3035;49.928;8.410;2023-01-04T10:19:34;3.17;;;2.87;;
6013;SDS011;3035;49.928;8.410;2023-01-04T10:22:15;3.63;;;2.30;;
6013;SDS011;3035;49.928;8.410;2023-01-04T10:25:01;4.70;;;2.70;;
6013;SDS011;3035;49.928;8.410;2023-01-04T10:27:55;2.93;;;2.63;;
6013;SDS011;3035;49.928;8.410;2023-01-04T10:30:46;3.70;;;2.87;;
6013;SDS011;3035;49.928;8.410;2023-01-04T10:33:14;3.53;;;2.50;;
6013;SDS011;3035;49.928;8.410;2023-01-04T10:35:44;10.90;;;3.00;;
6013;SDS011;3035;49.928;8.410;2023-01-04T10:38:17;3.20;;;2.37;;
6013;SDS011;3035;49.928;8.410;2023-01-04T10:40:46;3.80;;;2.70;;
6013;SDS011;3035;49.928;8.410;2023-01-04T10:43:19;2.63;;;2.33;;
6013;SDS011;3035;49.928;8.410;2023-01-04T10:46:06;6.93;;;2.60;;
6013;SDS011;3035;49.928;8.410;2023-01-04T10:48:36;6.50;;;3.27;;
6013;SDS011;3035;49.928;8.410;2023-01-04T10:51:10;4.40;;;2.20;;
6013;SDS011;3035;49.928;8.410;2023-01-04T10:56:18;2.50;;;2.10;;
6013;SDS011;3035;49.928;8.410;2023-01-04T10:58:52;3.87;;;2.53;;
6013;SDS011;3035;49.928;8.410;2023-01-04T11:01:25;3.67;;;2.70;;
6013;SDS011;3035;49.928;8.410;2023-01-04T11:03:57;2.47;;;2.27;;
6013;SDS011;3035;49.928;8.410;2023-01-04T11:06:28;6.43;;;2.30;;
6013;SDS011;3035;49.928;8.410;2023-01-04T11:08:56;2.60;;;1.90;;
6013;SDS011;3035;49.928;8.410;2023-01-04T11:11:26;2.10;;;1.83;;
6013;SDS011;3035;49.928;8.410;2023-01-04T11:13:54;4.47;;;2.10;;
6013;SDS011;3035;49.928;8.410;2023-01-04T11:16:22;1.53;;;1.43;;
6013;SDS011;3035;49.928;8.410;2023-01-04T11:18:50;2.63;;;2.13;;
6013;SDS011;3035;49.928;8.410;2023-01-04T11:21:20;1.83;;;1.73;;
6013;SDS011;3035;49.928;8.410;2023-01-04T11:23:48;2.17;;;1.80;;
6013;SDS011;3035;49.928;8.410;2023-01-04T11:26:19;2.07;;;1.87;;
6013;SDS011;3035;49.928;8.410;2023-01-04T11:28:50;2.10;;;1.77;;
6013;SDS011;3035;49.928;8.410;2023-01-04T11:31:23;1.80;;;1.63;;
6013;SDS011;3035;49.928;8.410;2023-01-04T11:34:01;2.33;;;1.60;;
6013;SDS011;3035;49.928;8.410;2023-01-04T11:36:34;3.70;;;1.90;;
6013;SDS011;3035;49.928;8.410;2023-01-04T11:39:03;1.60;;;1.50;;
6013;SDS011;3035;49.928;8.410;2023-01-04T11:41:36;5.07;;;1.67;;
6013;SDS011;3035;49.928;8.410;2023-01-04T11:44:05;2.83;;;1.57;;
6013;SDS011;3035;49.928;8.410;2023-01-04T11:46:33;2.47;;;1.17;;
6013;SDS011;3035;49.928;8.410;2023-01-04T11:49:01;3.97;;;1.77;;
6013;SDS011;3035;49.928;8.410;2023-01-04T11:51:33;4.33;;;1.90;;
6013;SDS011;3035;49.928;8.410;2023-01-04T11:54:02;1.87;;;1.27;;
6013;SDS011;3035;49.928;8.410;2023-01-04T11:56:32;3.30;;;1.80;;
6013;SDS011;3035;49.928;8.410;2023-01-04T11:59:05;2.70;;;1.40;;
6013;SDS011;3035;49.928;8.410;2023-01-04T12:01:34;1.20;;;1.10;;
6013;SDS011;3035;49.928;8.410;2023-01-04T12:04:02;1.23;;;1.10;;
6013;SDS011;3035;49.928;8.410;2023-01-04T12:06:36;2.67;;;1.30;;
6013;SDS011;3035;49.928;8.410;2023-01-04T12:09:03;1.10;;;1.00;;
6013;SDS011;3035;49.928;8.410;2023-01-04T12:11:34;2.97;;;1.67;;
6013;SDS011;3035;49.928;8.410;2023-01-04T12:14:01;1.33;;;1.20;;
6013;SDS011;3035;49.928;8.410;2023-01-04T12:16:37;5.93;;;1.43;;
6013;SDS011;3035;49.928;8.410;2023-01-04T12:19:08;2.10;;;1.10;;
6013;SDS011;3035;49.928;8.410;2023-01-04T12:21:36;2.60;;;1.37;;
6013;SDS011;3035;49.928;8.410;2023-01-04T12:24:04;1.50;;;1.37;;
6013;SDS011;3035;49.928;8.410;2023-01-04T12:26:39;2.13;;;1.60;;
6013;SDS011;3035;49.928;8.410;2023-01-04T12:35:06;1.93;;;1.50;;
6013;SDS011;3035;49.928;8.410;2023-01-04T12:37:43;1.90;;;1.60;;
6013;SDS011;3035;49.928;8.410;2023-01-04T12:43:16;1.73;;;1.40;;
6013;SDS011;3035;49.928;8.410;2023-01-04T12:45:51;1.50;;;1.40;;
6013;SDS011;3035;49.928;8.410;2023-01-04T12:53:52;2.83;;;1.73;;
6013;SDS011;3035;49.928;8.410;2023-01-04T12:56:23;1.90;;;1.50;;
6013;SDS011;3035;49.928;8.410;2023-01-04T13:01:33;1.90;;;1.80;;
6013;SDS011;3035;49.928;8.410;2023-01-04T13:04:24;10.83;;;2.30;;
6013;SDS011;3035;49.928;8.410;2023-01-04T13:06:31;2.37;;;2.00;;
6013;SDS011;3035;49.928;8.410;2023-01-04T13:09:00;5.27;;;2.47;;
6013;SDS011;3035;49.928;8.410;2023-01-04T13:11:33;5.50;;;2.37;;
6013;SDS011;3035;49.928;8.410;2023-01-04T13:14:07;3.40;;;2.00;;
6013;SDS011;3035;49.928;8.410;2023-01-04T13:21:50;5.23;;;2.70;;
6013;SDS011;3035;49.928;8.410;2023-01-04T13:24:22;5.23;;;2.13;;
6013;SDS011;3035;49.928;8.410;2023-01-04T13:26:52;4.70;;;1.87;;
6013;SDS011;3035;49.928;8.410;2023-01-04T13:29:21;3.37;;;2.27;;
6013;SDS011;3035;49.928;8.410;2023-01-04T13:31:56;5.27;;;1.80;;
6013;SDS011;3035;49.928;8.410;2023-01-04T13:34:29;3.50;;;1.90;;
6013;SDS011;3035;49.928;8.410;2023-01-04T13:39:51;5.60;;;2.10;;
6013;SDS011;3035;49.928;8.410;2023-01-04T13:42:23;2.43;;;1.70;;
6013;SDS011;3035;49.928;8.410;2023-01-04T13:48:04;1.70;;;1.60;;
6013;SDS011;3035;49.928;8.410;2023-01-04T13:50:33;2.63;;;1.50;;
6013;SDS011;3035;49.928;8.410;2023-01-04T13:53:02;1.70;;;1.60;;
6013;SDS011;3035;49.928;8.410;2023-01-04T13:55:31;1.73;;;1.47;;
6013;SDS011;3035;49.928;8.410;2023-01-04T13:58:00;2.43;;;1.53;;
6013;SDS011;3035;49.928;8.410;2023-01-04T14:00:29;4.93;;;1.30;;
6013;SDS011;3035;49.928;8.410;2023-01-04T14:05:43;3.23;;;1.23;;
6013;SDS011;3035;49.928;8.410;2023-01-04T14:08:11;3.53;;;1.60;;
6013;SDS011;3035;49.928;8.410;2023-01-04T14:10:41;1.23;;;1.10;;
6013;SDS011;3035;49.928;8.410;2023-01-04T14:13:12;1.00;;;0.90;;
6013;SDS011;3035;49.928;8.410;2023-01-04T14:15:37;1.73;;;1.30;;
6013;SDS011;3035;49.928;8.410;2023-01-04T14:18:22;1.50;;;1.40;;
6013;SDS011;3035;49.928;8.410;2023-01-04T14:20:43;1.30;;;1.20;;
6013;SDS011;3035;49.928;8.410;2023-01-04T14:25:55;1.33;;;1.23;;
6013;SDS011;3035;49.928;8.410;2023-01-04T14:28:26;2.23;;;1.10;;
6013;SDS011;3035;49.928;8.410;2023-01-04T14:31:10;1.40;;;1.30;;
6013;SDS011;3035;49.928;8.410;2023-01-04T14:33:41;1.77;;;1.30;;
6013;SDS011;3035;49.928;8.410;2023-01-04T14:36:17;1.30;;;1.03;;
6013;SDS011;3035;49.928;8.410;2023-01-04T14:38:59;1.13;;;0.93;;
6013;SDS011;3035;49.928;8.410;2023-01-04T14:41:52;1.43;;;1.27;;
6013;SDS011;3035;49.928;8.410;2023-01-04T14:44:20;1.50;;;1.10;;
6013;SDS011;3035;49.928;8.410;2023-01-04T14:46:47;0.90;;;0.90;;
6013;SDS011;3035;49.928;8.410;2023-01-04T14:49:16;1.00;;;1.00;;
6013;SDS011;3035;49.928;8.410;2023-01-04T14:51:46;1.73;;;1.10;;
6013;SDS011;3035;49.928;8.410;2023-01-04T14:54:15;1.07;;;0.90;;
6013;SDS011;3035;49.928;8.410;2023-01-04T14:56:43;1.00;;;0.90;;
6013;SDS011;3035;49.928;8.410;2023-01-04T14:59:12;1.23;;;1.13;;
6013;SDS011;3035;49.928;8.410;2023-01-04T15:01:40;1.93;;;1.10;;
6013;SDS011;3035;49.928;8.410;2023-01-04T15:04:08;0.83;;;0.83;;
6013;SDS011;3035;49.928;8.410;2023-01-04T15:06:36;1.10;;;1.00;;
6013;SDS011;3035;49.928;8.410;2023-01-04T15:09:05;3.63;;;0.70;;
6013;SDS011;3035;49.928;8.410;2023-01-04T15:11:33;2.50;;;0.80;;
6013;SDS011;3035;49.928;8.410;2023-01-04T15:14:02;3.10;;;1.07;;
6013;SDS011;3035;49.928;8.410;2023-01-04T15:16:30;1.10;;;1.00;;
6013;SDS011;3035;49.928;8.410;2023-01-04T15:18:58;0.87;;;0.80;;
6013;SDS011;3035;49.928;8.410;2023-01-04T15:21:27;1.03;;;0.83;;
6013;SDS011;3035;49.928;8.410;2023-01-04T15:23:57;1.40;;;0.70;;
6013;SDS011;3035;49.928;8.410;2023-01-04T15:26:25;0.90;;;0.80;;
6013;SDS011;3035;49.928;8.410;2023-01-04T15:28:54;1.27;;;1.00;;
6013;SDS011;3035;49.928;8.410;2023-01-04T15:31:23;1.03;;;0.90;;
6013;SDS011;3035;49.928;8.410;2023-01-04T15:33:52;1.10;;;1.00;;
6013;SDS011;3035;49.928;8.410;2023-01-04T15:36:20;1.50;;;1.40;;
6013;SDS011;3035;49.928;8.410;2023-01-04T15:38:52;1.40;;;1.03;;
6013;SDS011;3035;49.928;8.410;2023-01-04T15:41:17;1.53;;;1.33;;
6013;SDS011;3035;49.928;8.410;2023-01-04T15:43:51;2.10;;;1.00;;
6013;SDS011;3035;49.928;8.410;2023-01-04T15:46:19;1.43;;;1.17;;
6013;SDS011;3035;49.928;8.410;2023-01-04T15:48:48;2.17;;;1.10;;
6013;SDS011;3035;49.928;8.410;2023-01-04T15:51:16;0.80;;;0.80;;
6013;SDS011;3035;49.928;8.410;2023-01-04T15:53:44;4.00;;;2.10;;
6013;SDS011;3035;49.928;8.410;2023-01-04T15:56:12;1.33;;;1.10;;
6013;SDS011;3035;49.928;8.410;2023-01-04T15:58:42;1.40;;;1.30;;
6013;SDS011;3035;49.928;8.410;2023-01-04T16:01:11;3.23;;;0.90;;
6013;SDS011;3035;49.928;8.410;2023-01-04T16:03:39;2.47;;;1.10;;
6013;SDS011;3035;49.928;8.410;2023-01-04T16:06:09;1.30;;;0.83;;
6013;SDS011;3035;49.928;8.410;2023-01-04T16:08:37;1.10;;;1.00;;
6013;SDS011;3035;49.928;8.410;2023-01-04T16:11:08;2.60;;;1.20;;
6013;SDS011;3035;49.928;8.410;2023-01-04T16:13:36;0.90;;;0.90;;
6013;SDS011;3035;49.928;8.410;2023-01-04T16:16:04;2.70;;;0.90;;
6013;SDS011;3035;49.928;8.410;2023-01-04T16:18:33;2.03;;;1.50;;
6013;SDS011;3035;49.928;8.410;2023-01-04T16:21:04;3.53;;;0.90;;
6013;SDS011;3035;49.928;8.410;2023-01-04T16:23:32;1.00;;;1.00;;